Record high temperature 35.0°C Record low temperature -18.6°C Record high gust 29.9 m/s Record high average 28.7 m/s Record daily rain 64.6 mm Record low windchill -62.6°C Record high barometer 1046.9 hPa Record low barometer 812.0 hPa
Daily high pressure 1011.1 hPa Daily low pressure 1010.1 hPa Daily low windchill 3.6°C Daily high heat index 10.9°C Daily high gust speed 6.4 m/s W Daily high average speed 2.9 m/s W
Weerpagina Nieuwendam
LAST READING AT TIME: 13:42 DATE: 17 April 2024, time of next update: 14:42
Current WeatherBewolkt-zw.bew./Geregend Current Temperature 6.2°C (43.1°F), Apparent temp 5.0°C, Apparent temp solar 7.3°C
Maximum Temperature (since midnight)10.9°C at: 11:22 Minimum Temperature (since midnight)4.7°C at: 06:49
Average windspeed (ten minute)0.4 m/s Wind Direction (ten minute)NW (315°)
Windchill Temperature 6.2°C Maximum Gust (last hour)2.5 m/s at: 12:46
Maximum Gust (since midnight)6.4 m/s at: 11:50 Maximum 1 minute average (since midnight)2.9 m/s at: 09:31
Rainfall (last hour)0.2 mm Rainfall (since midnight)4.1 mm (0.16 in.) at 13:15
Rainfall This month 41.8 mm (1.65 in.) Rainfall To date this year 268.9 mm (10.59 in.)
Maximum rain per minute (last hour)0.2 mm/min Maximum rain per hour (last 6 hours)2.7 mm/hour
Yesterdays rainfall 9.6 mm DewPoint 4.6°C (Wet Bulb :5.5°C )
Humidity 90 %, Humidex 5.3°C Barometer corrected to msl1011.1 hPa
Pressure change +0.2 hPa (last hour) Trend (last hour)STEADY
Pressure change (last 12 hours)+0.5 hPa Pressure change (last 6 hours)+0.4 hPa
Current solar 127 W/mē Current UV0.0
Maximum solar (since midnight) 722 W/mē Maximum UV (since midnight)1.1
Current 01:56 hours of sunshine today, current sky: Bewolkt-zw.bew.
Sunshine hours for the year: 200:27 hrs Sunshine hours for the month: 46:35 hrs
Current evapotranspiration rate 1.3 mm per day. Yesterday's reading 1.7
Lightning counts 0 since noon
Time of last strike 16:45:50 2011/09/02Counts in the last 30 minutes 0


Click here for the last 24 hour graph
Click here for the last 48 hour graph
Click here for the last 72 hour graph
Click here for the month to date graph
Click here to listen to the current weather conditions

Weather report/warning/Metars

Amsterdam Airport Schiphol, Netherlands (EHAM) 52-18N 004-46E -2M
Apr 17, 2024 - 07:25 AM EDT / 2024.04.17 1125 UTC
Wind: from the SW (230 degrees) at 8 MPH (7 KT) (direction variable):0
Visibility: greater than 7 mile(s):0
Sky conditions: mostly cloudy
Weather: light rain showers; Cumulonimbus clouds observed
Temperature: 39 F (4 C)
Dew Point: 37 F (3 C)
Relative Humidity: 93%
Pressure (altimeter): 29.88 in. Hg (1012 hPa)
ob: EHAM 171125Z 23007KT 200V270 9999 -SHRA FEW009 SCT016CB BKN023 04/03 Q1012 BECMG 33010KT
cycle: 11
Maastricht Airport Zuid Limburg, Netherlands (EHBK) 50-55N 005-47E 116M
Apr 17, 2024 - 07:25 AM EDT / 2024.04.17 1125 UTC
Wind: from the WNW (290 degrees) at 9 MPH (8 KT) (direction variable):0
Visibility: greater than 7 mile(s):0
Sky conditions: mostly cloudy
Weather: light rain; Cumulonimbus clouds observed
Temperature: 39 F (4 C)
Dew Point: 35 F (2 C)
Relative Humidity: 86%
Pressure (altimeter): 29.88 in. Hg (1012 hPa)
ob: EHBK 171125Z AUTO 29008KT 240V360 9999 -RA FEW003/// SCT017/// BKN031/// 04/02 Q1012 TEMPO 5000 SHRA SCT020CB
cycle: 11
Eindhoven, Netherlands (EHEH) 51-27N 005-25E 28M
Apr 17, 2024 - 07:25 AM EDT / 2024.04.17 1125 UTC
Wind: from the SW (230 degrees) at 6 MPH (5 KT) (direction variable):0
Visibility: greater than 7 mile(s):0
Sky conditions: overcast
Weather: Cumulonimbus clouds observed
Temperature: 48 F (9 C)
Dew Point: 39 F (4 C)
Relative Humidity: 70%
Pressure (altimeter): 29.88 in. Hg (1012 hPa)
ob: EHEH 171125Z AUTO 23005KT 170V280 9999 BKN100 OVC160 09/04 Q1012 BLU TEMPO 34015G25KT 4000 SHRAGS TSRA SCT015 SCT018CB BKN020
cycle: 11
Leeuwarden, Netherlands (EHLW) 53-13N 005-46E 11M
Apr 17, 2024 - 07:25 AM EDT / 2024.04.17 1125 UTC
Wind: from the NE (040 degrees) at 8 MPH (7 KT) (direction variable):0
Visibility: greater than 7 mile(s):0
Sky conditions: mostly cloudy
Weather: Cumulonimbus clouds observed
Temperature: 48 F (9 C)
Dew Point: 41 F (5 C)
Relative Humidity: 75%
Pressure (altimeter): 29.83 in. Hg (1010 hPa)
ob: EHLW 171125Z AUTO 04007KT 320V100 9999 FEW032 SCT041 BKN130 09/05 Q1010 BLU TEMPO 4500 -SHRA SCT020CB
cycle: 11

Daily Fire weather Index for this station

Click here for a daily update of the averages/extremes to date for the month


The data is logged at two minute intervals, but there is data recorded every minute. Best viewed in 800 x 600 and True colour.

This page has AUTO RELOAD facility for the latest data.











This page is updated from recent data collected by a La Crosse 2010 weather station
Use the Reload or Refresh
facility on your browser to retrieve the latest data.










email de weerman



Created by "Weather Display" software version 10.37S at this start time/date 13:21:03 11-4-2024
if(typeof(urchinTracker)!='function')document.write('')